createdAt,value
2019-03-16T00:00:03.189Z,87.2
2019-03-16T00:05:02.816Z,87.2
2019-03-16T00:10:03.266Z,87.19
2019-03-16T00:15:02.589Z,87.2
2019-03-16T00:20:03.023Z,87.2
2019-03-16T00:25:02.451Z,87.17
2019-03-16T00:30:02.886Z,87.18
2019-03-16T00:35:03.227Z,87.17
2019-03-16T00:40:02.648Z,87.17
2019-03-16T00:45:02.987Z,87.14
2019-03-16T00:50:02.410Z,87.13
2019-03-16T00:55:02.854Z,87.11
2019-03-16T01:00:03.311Z,87.12
2019-03-16T01:05:03.125Z,87.13
2019-03-16T01:10:02.671Z,87.12
2019-03-16T01:15:03.086Z,87.14
2019-03-16T01:20:02.505Z,87.12
2019-03-16T01:25:02.050Z,87.13
2019-03-16T01:30:02.461Z,87.1
2019-03-16T01:35:02.819Z,87.12
2019-03-16T01:40:03.256Z,87.12
2019-03-16T01:45:02.676Z,87.11
2019-03-16T01:50:03.122Z,87.1
2019-03-16T01:55:02.538Z,87.1
2019-03-16T02:00:02.868Z,87.1
2019-03-16T02:05:03.357Z,87.12
2019-03-16T02:10:02.838Z,87.09
2019-03-16T02:15:03.318Z,87.12
2019-03-16T02:20:02.640Z,87.16
2019-03-16T02:25:03.042Z,87.12
2019-03-16T02:30:02.480Z,87.13
2019-03-16T02:35:02.903Z,87.14
2019-03-16T02:40:03.387Z,87.15
2019-03-16T02:45:02.786Z,87.15
2019-03-16T02:50:03.259Z,87.16
2019-03-16T02:55:02.634Z,87.16
2019-03-16T03:00:02.972Z,87.14
2019-03-16T03:05:02.390Z,87.15
2019-03-16T03:10:02.845Z,87.15
2019-03-16T03:15:03.317Z,87.15
2019-03-16T03:20:02.697Z,87.15
2019-03-16T03:25:03.075Z,87.13
2019-03-16T03:30:02.500Z,87.14
2019-03-16T03:35:02.901Z,87.15
2019-03-16T03:40:02.422Z,87.15
2019-03-16T03:45:02.775Z,87.15
2019-03-16T03:50:03.208Z,87.15
2019-03-16T03:55:02.648Z,87.17
2019-03-16T04:00:03.131Z,87.16
2019-03-16T04:05:02.495Z,87.17
2019-03-16T04:10:02.943Z,87.16
2019-03-16T04:15:02.476Z,87.16
2019-03-16T04:20:02.909Z,87.2
2019-03-16T04:25:03.339Z,87.2
2019-03-16T04:30:02.763Z,87.22
2019-03-16T04:35:03.101Z,87.22
2019-03-16T04:40:02.518Z,87.21
2019-03-16T04:45:02.834Z,87.25
2019-03-16T04:50:03.216Z,87.26
2019-03-16T04:55:02.609Z,87.26
2019-03-16T05:00:02.973Z,87.26
2019-03-16T05:05:02.380Z,87.27
2019-03-16T05:10:02.821Z,87.27
2019-03-16T05:15:03.160Z,87.26
2019-03-16T05:20:02.587Z,87.28
2019-03-16T05:25:02.914Z,87.29
2019-03-16T05:30:02.665Z,87.3
2019-03-16T05:35:03.015Z,87.31
2019-03-16T05:40:02.413Z,87.32
2019-03-16T05:45:02.746Z,87.32
2019-03-16T05:50:03.093Z,87.35
2019-03-16T05:55:02.512Z,87.35
2019-03-16T06:00:02.849Z,87.34
2019-03-16T06:05:10.392Z,87.38
2019-03-16T06:10:02.731Z,87.38
2019-03-16T06:15:03.064Z,87.37
2019-03-16T06:20:02.475Z,87.38
2019-03-16T06:25:02.829Z,87.38
2019-03-16T06:30:03.275Z,87.4
2019-03-16T06:35:02.715Z,87.4
2019-03-16T06:40:03.241Z,87.41
2019-03-16T06:45:02.655Z,87.43
2019-03-16T06:50:03.040Z,87.41
2019-03-16T06:55:02.399Z,87.44
2019-03-16T07:00:02.738Z,87.46
2019-03-16T07:05:03.096Z,87.49
2019-03-16T07:10:01.714Z,87.5
2019-03-16T07:15:03.043Z,87.53
2019-03-16T07:20:02.464Z,87.54
2019-03-16T07:25:02.808Z,87.57
2019-03-16T07:30:03.135Z,87.58
2019-03-16T07:35:02.464Z,87.59
2019-03-16T07:40:02.906Z,87.61
2019-03-16T07:45:08.043Z,87.58
2019-03-16T07:50:03.174Z,87.62
2019-03-16T07:55:02.504Z,87.63
2019-03-16T08:00:02.940Z,87.62
2019-03-16T08:05:16.900Z,87.65
2019-03-16T08:10:03.561Z,87.66
2019-03-16T08:15:03.046Z,87.7
2019-03-16T08:20:02.463Z,87.77
2019-03-16T08:25:02.801Z,87.84
2019-03-16T08:30:03.143Z,87.87
2019-03-16T08:35:02.563Z,87.95
2019-03-16T08:40:02.967Z,88.08
2019-03-16T08:45:03.351Z,88.24
2019-03-16T08:50:02.774Z,88.37
2019-03-16T08:55:03.113Z,88.58
2019-03-16T09:00:02.438Z,88.67
2019-03-16T09:05:02.885Z,88.69
2019-03-16T09:10:03.330Z,88.66
2019-03-16T09:15:02.725Z,88.68
2019-03-16T09:20:03.072Z,88.66
2019-03-16T09:25:02.393Z,88.55
2019-03-16T09:30:02.744Z,88.55
2019-03-16T09:35:03.170Z,88.42
2019-03-16T09:40:02.688Z,88.38
2019-03-16T09:45:02.218Z,88.32
2019-03-16T09:50:02.553Z,88.26
2019-03-16T09:55:02.995Z,88.23
2019-03-16T10:00:02.424Z,88.26
2019-03-16T10:05:02.755Z,88.25
2019-03-16T10:10:03.211Z,88.28
2019-03-16T10:15:02.637Z,88.25
2019-03-16T10:20:03.096Z,88.25
2019-03-16T10:25:02.422Z,88.29
2019-03-16T10:30:02.837Z,88.27
2019-03-16T10:35:03.283Z,88.24
2019-03-16T10:40:02.688Z,88.2
2019-03-16T10:45:03.042Z,88.26
2019-03-16T10:50:02.447Z,88.44
2019-03-16T10:55:02.795Z,88.51
2019-03-16T11:00:03.120Z,88.48
2019-03-16T11:05:02.546Z,88.38
2019-03-16T11:10:02.996Z,88.3
2019-03-16T11:15:02.738Z,88.17
2019-03-16T11:20:03.187Z,88.13
2019-03-16T11:25:02.572Z,88.07
2019-03-16T11:30:02.923Z,88.02
2019-03-16T11:35:03.275Z,87.97
2019-03-16T11:40:02.682Z,87.96
2019-03-16T11:45:03.028Z,87.95
2019-03-16T11:50:02.451Z,87.91
2019-03-16T11:55:02.788Z,87.79
2019-03-16T12:00:03.224Z,87.72
2019-03-16T12:05:02.645Z,87.72
2019-03-16T12:10:03.117Z,87.68
2019-03-16T12:15:02.501Z,87.64
2019-03-16T12:20:02.947Z,87.6
2019-03-16T12:25:03.390Z,87.49
2019-03-16T12:30:02.726Z,87.47
2019-03-16T12:35:02.345Z,87.48
2019-03-16T12:40:02.798Z,87.43
2019-03-16T12:45:03.221Z,87.42
2019-03-16T12:50:02.632Z,87.42
2019-03-16T12:55:02.990Z,87.3
2019-03-16T13:00:02.395Z,87.33
2019-03-16T13:05:02.738Z,87.34
2019-03-16T13:10:03.124Z,87.33
2019-03-16T13:15:02.514Z,87.32
2019-03-16T13:20:02.955Z,87.35
2019-03-16T13:25:02.359Z,87.4
2019-03-16T13:30:02.734Z,87.38
2019-03-16T13:35:03.151Z,87.33
2019-03-16T13:40:02.567Z,87.28
2019-03-16T13:45:02.884Z,87.2
2019-03-16T13:50:03.253Z,87.16
2019-03-16T13:55:02.665Z,87.13
2019-03-16T14:00:11.617Z,87.11
2019-03-16T14:05:02.734Z,87.22
2019-03-16T14:10:02.464Z,87.22
2019-03-16T14:15:02.899Z,87.12
2019-03-16T14:20:02.506Z,87.08
2019-03-16T14:25:02.873Z,87.19
2019-03-16T14:30:03.254Z,87.25
2019-03-16T14:35:02.639Z,87.33
2019-03-16T14:40:03.144Z,87.35
2019-03-16T14:45:02.595Z,87.31
2019-03-16T14:50:03.031Z,87.22
2019-03-16T14:55:02.383Z,87.17
2019-03-16T15:00:02.791Z,87.12
2019-03-16T15:05:03.238Z,86.97
2019-03-16T15:10:02.662Z,86.94
2019-03-16T15:15:03.113Z,86.9
2019-03-16T15:20:02.513Z,86.84
2019-03-16T15:25:02.897Z,87.02
2019-03-16T15:30:02.431Z,87.06
2019-03-16T15:35:05.717Z,87.15
2019-03-16T15:40:02.356Z,87.16
2019-03-16T15:45:02.792Z,87.16
2019-03-16T15:50:03.165Z,87.17
2019-03-16T15:55:02.507Z,87.19
2019-03-16T16:00:03.523Z,87.16
2019-03-16T16:05:02.840Z,87.13
2019-03-16T16:10:02.465Z,87.19
2019-03-16T16:15:02.884Z,87.17
2019-03-16T16:20:03.220Z,87.18
2019-03-16T16:25:02.656Z,87.18
2019-03-16T16:30:02.989Z,87.18
2019-03-16T16:35:02.406Z,87.17
2019-03-16T16:40:02.827Z,87.22
2019-03-16T16:45:03.145Z,87.22
2019-03-16T16:50:02.509Z,87.22
2019-03-16T16:55:02.859Z,87.21
2019-03-16T17:00:03.189Z,87.23
2019-03-16T17:05:02.606Z,87.2
2019-03-16T17:10:03.054Z,87.19
2019-03-16T17:15:02.379Z,87.17
2019-03-16T17:20:02.809Z,87.17
2019-03-16T17:25:03.180Z,87.13
2019-03-16T17:30:02.979Z,87.14
2019-03-16T17:35:02.453Z,87.01
2019-03-16T17:40:02.882Z,87.0
2019-03-16T17:45:03.299Z,87.02
2019-03-16T17:50:02.706Z,87.04
2019-03-16T17:55:03.045Z,87.07
2019-03-16T18:00:02.466Z,87.11
2019-03-16T18:05:02.815Z,87.13
2019-03-16T18:10:03.330Z,87.1
2019-03-16T18:15:02.667Z,87.1
2019-03-16T18:20:03.017Z,87.1
2019-03-16T18:25:02.464Z,87.09
2019-03-16T18:30:02.886Z,87.1
2019-03-16T18:35:03.356Z,87.08
2019-03-16T18:40:02.842Z,87.07
2019-03-16T18:45:03.198Z,87.08
2019-03-16T18:50:02.633Z,87.06
2019-03-16T18:55:03.116Z,87.09
2019-03-16T19:00:02.422Z,87.09
2019-03-16T19:05:02.807Z,87.1
2019-03-16T19:10:02.438Z,87.15
2019-03-16T19:15:02.759Z,87.16
2019-03-16T19:20:03.105Z,87.16
2019-03-16T19:25:02.526Z,87.18
2019-03-16T19:30:02.866Z,87.21
2019-03-16T19:35:03.188Z,87.21
2019-03-16T19:40:02.564Z,87.22
2019-03-16T19:45:02.968Z,87.25
2019-03-16T19:50:02.379Z,87.23
2019-03-16T19:55:02.734Z,87.24
2019-03-16T20:00:03.068Z,87.23
2019-03-16T20:05:02.489Z,87.25
2019-03-16T20:10:02.924Z,87.19
2019-03-16T20:15:03.275Z,87.19
2019-03-16T20:20:02.689Z,87.21
2019-03-16T20:25:03.049Z,87.18
2019-03-16T20:30:02.483Z,87.18
2019-03-16T20:35:02.894Z,87.16
2019-03-16T20:40:03.285Z,87.18
2019-03-16T20:45:02.636Z,87.19
2019-03-16T20:50:02.994Z,87.17
2019-03-16T20:55:02.499Z,87.16
2019-03-16T21:00:03.075Z,87.18
2019-03-16T21:05:02.516Z,87.17
2019-03-16T21:10:02.921Z,87.19
2019-03-16T21:15:03.268Z,87.21
2019-03-16T21:20:02.675Z,87.21
2019-03-16T21:25:03.031Z,87.22
2019-03-16T21:30:02.484Z,87.22
2019-03-16T21:35:02.887Z,87.22
2019-03-16T21:40:03.337Z,87.24
2019-03-16T21:45:02.745Z,87.22
2019-03-16T21:50:03.091Z,87.23
2019-03-16T21:55:02.563Z,87.23
2019-03-16T22:00:02.096Z,87.23
2019-03-16T22:05:01.608Z,87.24
2019-03-16T22:10:03.011Z,87.22
2019-03-16T22:15:02.382Z,87.21
2019-03-16T22:20:02.782Z,87.22
2019-03-16T22:25:03.120Z,87.24
2019-03-16T22:30:02.477Z,87.23
2019-03-16T22:35:02.885Z,87.23
2019-03-16T22:40:03.408Z,87.24
2019-03-16T22:45:02.744Z,87.23
2019-03-16T22:50:03.394Z,87.25
2019-03-16T22:55:02.806Z,87.23
2019-03-16T23:00:03.143Z,87.25
2019-03-16T23:05:02.606Z,87.23
2019-03-16T23:10:03.017Z,87.24
2019-03-16T23:15:02.466Z,87.23
2019-03-16T23:20:02.870Z,87.23
2019-03-16T23:25:03.211Z,87.24
2019-03-16T23:30:02.645Z,87.25
2019-03-16T23:35:02.976Z,87.23
2019-03-16T23:40:02.395Z,87.24
2019-03-16T23:45:02.747Z,87.21
2019-03-16T23:50:03.178Z,87.21
2019-03-16T23:55:02.599Z,87.18
